Alma, Colorado
Current Conditions -  °F | °C
As of 2:15 PM on Sunday 23 Nov 2014 (Local Time) from KCCU Reporting Station
Overcast Overcast  
Wind Chill: -23°   Ceiling: 100
Heat Index: -11°   Visibility: NA
Dew Point: -15°   Wind: 33mph
Humidity: 73%   Direction: 290°WNW
Pressure: 29.75"   Gusts: 51mph
Location:  39.28°N, 106.06°W
Report Text: KCCU 232115Z AUTO 29029G44KT BKN001 BKN005 OVC008 M11/M15 A2975 RMK AO2 PWINO
Loading
Personal Weather Stations






























Interactive Weather Map New forecast layout! Learn more

10-Day Weather Forecast

Advertisements
Track Severe Weather on mobile